Latest Weather Observations for Argyle

IDD60801

Issued at 11:35 am CST Tuesday 2 September 2014 (issued every 30 minutes, with the page automatically refreshed every 10 minutes)

About weather observations | Map of weather stations | Latest weather observations for NT | Other Formats
Station Details ID: 002064 Name: ARGYLE AERODROME Lat: -16.64 Lon: 128.45 Height: 164.0 m
Data from the previous 72 hours. | See also: Recent months at Argyle
Date/Time
CST
Temp
°C
App
Temp
°C
Dew
Point
Rel
Hum
%
Delta-T
°C
Wind Press
QNH
hPa
Press
MSL
hPa
Rain
since 9 am
mm
Dir
 
Spd
km/h
Gust
km/h
Spd
kts
Gust
kts
02/11:30am 33.1 25.3 -12.6 4 18.2 ENE 24 35 13 19 1017.1 - 0.0
02/11:00am 31.7 26.2 -9.1 6 17.0 ESE 13 22 7 12 1017.7 - 0.0
02/10:30am 30.7 24.8 -9.7 7 16.5 ESE 15 20 8 11 1018.1 1017.1 0.0
02/10:00am 28.9 24.1 -6.2 9 15.0 ESE 11 15 6 8 1018.2 - 0.0
02/09:30am 27.6 23.0 -7.6 9 14.5 E 9 13 5 7 1018.1 - 0.0
02/09:00am 26.4 22.4 -6.1 11 13.6 SE 7 11 4 6 1018.0 - 0.0
02/08:37am 24.8 22.0 -3.7 15 12.3 SW 2 9 1 5 1017.8 - 0.0
02/08:30am 23.4 20.7 -2.5 17 11.3 WSW 2 6 1 3 1017.8 - 0.0
02/08:00am 20.9 18.5 -3.5 19 10.2 CALM 0 0 0 0 1017.7 - 0.0
02/07:30am 19.7 16.9 -3.5 20 9.6 SSE 2 6 1 3 1017.2 1016.2 0.0
02/07:00am 18.8 16.1 -2.4 23 8.9 SSW 2 6 1 3 1016.8 - 0.0
02/06:30am 19.2 16.8 -2.9 22 9.2 CALM 0 0 0 0 1016.6 - 0.0
02/06:02am 17.6 14.3 -0.1 30 7.7 W 7 7 4 4 1016.4 - 0.0
02/06:00am 17.5 14.1 -0.3 30 7.7 W 7 7 4 4 1016.3 - 0.0
02/05:30am 19.9 16.5 -1.8 23 9.3 SE 6 7 3 4 1016.1 - 0.0
02/05:00am 19.7 16.0 -2.6 22 9.4 E 7 9 4 5 1016.0 - 0.0
02/04:48am 20.0 16.4 -2.4 22 9.5 E 7 9 4 5 1015.8 - 0.0
02/04:30am 20.3 17.6 -2.2 22 9.6 WSW 2 7 1 4 1015.8 1014.7 0.0
02/04:06am 20.0 17.9 -0.7 25 9.1 CALM 0 0 0 0 1015.6 - 0.0
02/04:00am 19.9 17.4 -1.0 24 9.1 WSW 2 6 1 3 1015.7 - 0.0
02/03:30am 19.3 15.3 -2.2 23 9.1 W 9 9 5 5 1015.8 - 0.0
02/03:00am 19.5 16.1 -1.8 23 9.1 SSW 6 7 3 4 1015.8 - 0.0
02/02:30am 20.4 17.0 -2.4 21 9.7 SE 6 7 3 4 1015.9 - 0.0
02/02:07am 20.9 17.7 -0.5 24 9.5 S 6 7 3 4 1015.9 - 0.0
02/02:00am 20.8 17.2 -2.3 21 9.9 SW 7 7 4 4 1015.9 - 0.0
02/01:46am 19.8 15.7 -3.3 21 9.6 W 9 11 5 6 1015.9 - 0.0
02/01:30am 21.7 17.8 -1.6 21 10.2 ESE 9 11 5 6 1015.9 1014.8 0.0
02/01:00am 21.0 16.9 -3.2 19 10.2 E 9 11 5 6 1016.0 - 0.0
02/12:30am 21.3 17.1 -3.9 18 10.5 ESE 9 15 5 8 1016.0 - 0.0
02/12:00am 20.9 17.1 -3.4 19 10.2 SE 7 9 4 5 1015.9 - 0.0
 
Date/Time
CST
Temp
°C
App
Temp
°C
Dew
Point
Rel
Hum
%
Delta-T
°C
Wind Press
QNH
hPa
Press
MSL
hPa
Rain
since 9 am
mm
Dir
 
Spd
km/h
Gust
km/h
Spd
kts
Gust
kts
01/11:30pm 24.5 21.1 -2.1 17 11.8 SSW 6 7 3 4 1015.8 - 0.0
01/11:00pm 25.3 21.6 -4.9 13 12.8 SW 6 7 3 4 1015.9 - 0.0
01/10:30pm 24.9 21.0 -4.4 14 12.5 SW 7 9 4 5 1015.9 1014.8 0.0
01/10:00pm 25.4 21.5 -5.1 13 12.9 WSW 7 7 4 4 1015.8 - 0.0
01/09:30pm 26.5 23.3 -3.5 13 13.2 WNW 4 6 2 3 1015.6 - 0.0
01/09:00pm 27.4 23.5 -6.3 10 14.2 W 6 7 3 4 1015.4 - 0.0
01/08:30pm 27.3 23.3 -5.4 11 14.0 WNW 7 7 4 4 1014.9 - 0.0
01/08:00pm 26.9 23.1 -3.9 13 13.5 NW 7 9 4 5 1014.6 - 0.0
01/07:30pm 28.7 25.0 -2.8 12 14.3 N 7 9 4 5 1014.2 1013.1 0.0
01/07:00pm 29.9 25.5 -5.7 9 15.5 NNE 9 13 5 7 1013.9 - 0.0
01/06:30pm 31.5 26.5 -8.3 7 16.8 NNE 11 15 6 8 1013.6 - 0.0
01/06:00pm 32.6 27.5 -9.6 6 17.6 NNE 11 15 6 8 1013.5 - 0.0
01/05:30pm 33.9 29.6 -11.7 5 18.6 ENE 6 13 3 7 1013.1 - 0.0
01/05:00pm 33.6 27.2 -12.4 4 18.5 ENE 17 22 9 12 1013.0 - 0.0
01/04:30pm 33.4 27.8 -10.7 5 18.2 NNE 13 22 7 12 1013.1 1012.0 0.0
01/04:00pm 33.5 27.6 -9.4 6 18.1 NNE 15 26 8 14 1013.2 - 0.0
01/03:30pm 34.1 27.7 -11.6 5 18.7 ENE 17 24 9 13 1013.4 - 0.0
01/03:00pm 34.2 28.6 -11.1 5 18.7 N 13 20 7 11 1013.7 - 0.0
01/02:30pm 33.8 45.4 33.7 99 0.1 WNW 9 20 5 11 1014.2 - 0.0
01/02:00pm 32.6 42.7 32.5 99 0.1 NNE 11 20 6 11 1014.8 - 0.0
01/01:30pm 32.3 27.7 -13.0 5 17.8 NNW 7 17 4 9 1015.4 1014.3 0.0
01/01:00pm 31.4 26.0 -13.2 5 17.3 ENE 11 20 6 11 1016.1 - 0.0
01/12:30pm 31.3 24.3 -12.8 5 17.2 ESE 20 32 11 17 1016.6 - 0.0
01/12:00pm 31.1 25.0 -12.9 5 17.1 ESE 15 26 8 14 1017.0 - 0.0
01/11:30am 30.1 24.0 -12.5 5 16.5 E 15 22 8 12 1017.5 - 0.0
01/11:00am 29.3 24.5 -10.3 7 15.8 NE 9 15 5 8 1018.1 - 0.0
01/10:30am 27.6 23.4 -7.6 9 14.5 ENE 7 11 4 6 1018.3 1017.3 0.0
01/10:00am 26.2 21.1 -9.4 9 14.0 E 11 15 6 8 1018.3 - 0.0
01/09:30am 24.7 20.7 -5.6 13 12.6 SE 7 11 4 6 1018.1 - 0.0
01/09:00am 21.7 18.2 -2.5 19 10.4 SE 6 7 3 4 1017.6 - 0.0
01/08:30am 18.8 14.3 -2.9 23 9.0 SE 11 13 6 7 1017.2 - 0.0
01/08:00am 17.7 14.0 -2.6 25 8.4 ESE 7 9 4 5 1016.8 - 0.0
01/07:30am 17.2 13.9 -1.2 28 7.8 SSW 6 9 3 5 1016.5 1015.4 0.0
01/07:00am 15.0 11.9 -2.3 30 7.0 SSE 4 6 2 3 1016.2 - 0.0
01/06:30am 17.4 13.9 -2.8 25 8.3 SE 6 7 3 4 1015.8 - 0.0
01/06:00am 16.5 13.0 -3.0 26 7.9 SE 6 7 3 4 1015.5 - 0.0
01/05:30am 17.8 13.9 -4.2 22 8.8 WSW 7 9 4 5 1015.3 - 0.0
01/05:00am 16.4 12.9 -2.8 26 7.8 WNW 6 7 3 4 1015.1 - 0.0
01/04:30am 17.8 15.3 -3.7 23 8.7 CALM 0 0 0 0 1014.8 1013.7 0.0
01/04:00am 18.7 16.5 -1.4 25 8.6 CALM 0 0 0 0 1014.6 - 0.0
01/03:00am 18.9 15.6 -1.4 25 8.7 W 6 6 3 3 1014.3 - 0.0
01/02:30am 18.9 15.1 -3.5 21 9.2 SW 7 9 4 5 1014.4 - 0.0
01/02:00am 19.3 15.5 -3.9 20 9.5 SSW 7 9 4 5 1014.4 - 0.0
01/01:30am 19.3 15.6 -4.9 19 9.7 S 6 7 3 4 1014.6 1013.7 0.0
01/01:00am 18.4 14.3 -3.3 22 8.9 SE 9 9 5 5 1014.9 - 0.0
01/12:30am 19.2 15.6 -3.3 21 9.3 ESE 6 11 3 6 1015.0 - 0.0
01/12:00am 21.2 18.0 -3.2 19 10.3 S 4 7 2 4 1014.9 - 0.0
 
Date/Time
CST
Temp
°C
App
Temp
°C
Dew
Point
Rel
Hum
%
Delta-T
°C
Wind Press
QNH
hPa
Press
MSL
hPa
Rain
since 9 am
mm
Dir
 
Spd
km/h
Gust
km/h
Spd
kts
Gust
kts
31/11:30pm 22.6 18.8 -4.0 16 11.2 SW 7 9 4 5 1014.9 - 0.0
31/11:00pm 22.0 17.8 -3.6 18 10.8 WSW 9 9 5 5 1014.8 - 0.0
31/10:30pm 22.7 18.8 -4.2 16 11.3 WSW 7 9 4 5 1014.8 1013.9 0.0
31/10:00pm 23.4 19.8 -3.4 16 11.5 W 6 7 3 4 1014.8 - 0.0
31/09:30pm 24.4 20.6 -5.8 13 12.5 W 6 7 3 4 1014.8 - 0.0
31/09:00pm 24.9 20.8 -6.6 12 12.9 W 7 9 4 5 1014.6 - 0.0
31/08:30pm 25.7 21.7 -5.8 12 13.2 NNW 7 9 4 5 1014.4 - 0.0
31/08:00pm 26.6 22.7 -4.2 13 13.4 N 7 7 4 4 1014.0 - 0.0
31/07:30pm 27.9 23.3 -7.7 9 14.7 N 9 11 5 6 1013.6 1012.7 0.0
31/07:00pm 28.7 24.1 -8.1 8 15.2 N 9 11 5 6 1013.4 - 0.0
31/06:30pm 29.8 25.1 -8.7 7 15.9 NNE 9 13 5 7 1013.2 - 0.0
31/06:00pm 31.1 26.8 -9.2 7 16.7 NNE 7 11 4 6 1013.0 - 0.0
31/05:30pm 31.3 26.1 -10.7 6 17.0 E 11 17 6 9 1012.9 - 0.0
31/05:00pm 31.9 27.5 -10.4 6 17.3 NE 7 19 4 10 1013.0 - 0.0
31/04:30pm 31.4 26.2 -10.2 6 17.0 NNE 11 19 6 10 1013.0 1012.1 0.0
31/04:00pm 31.9 26.7 -11.2 5 17.4 E 11 20 6 11 1013.1 - 0.0
31/03:30pm 31.5 25.9 -11.5 5 17.2 ENE 13 20 7 11 1013.5 - 0.0
31/03:00pm 32.0 25.1 -10.8 6 17.4 E 20 26 11 14 1013.8 - 0.0
31/02:30pm 31.6 25.5 -12.9 5 17.4 E 15 22 8 12 1014.1 - 0.0
31/02:00pm 30.6 23.6 -12.5 5 16.8 ENE 20 32 11 17 1014.5 - 0.0
31/01:30pm 31.1 25.5 -10.9 6 16.9 NE 13 20 7 11 1014.9 1014.0 0.0
31/01:00pm 30.3 23.9 -12.3 5 16.6 ENE 17 26 9 14 1015.5 - 0.0
31/12:30pm 30.2 24.6 -11.0 6 16.4 E 13 22 7 12 1016.1 - 0.0
31/12:00pm 30.3 23.6 -10.6 6 16.4 E 19 30 10 16 1016.7 - 0.0
31/11:30am 29.3 23.8 -9.5 7 15.7 E 13 20 7 11 1017.3 - 0.0
31/11:00am 28.5 23.4 -9.0 8 15.2 ENE 11 20 6 11 1017.7 - 0.0
31/10:30am 26.9 22.3 -7.5 10 14.1 ENE 9 13 5 7 1017.8 1017.0 0.0
31/10:00am 25.8 21.4 -6.2 11 13.3 ESE 9 13 5 7 1017.9 - 0.0
31/09:30am 24.7 20.7 -5.6 13 12.6 E 7 11 4 6 1017.8 - 0.0
31/09:00am 23.8 19.6 -7.2 12 12.4 ENE 7 11 4 6 1017.5 - 0.0
31/08:30am 22.2 18.3 -6.2 14 11.4 NE 6 9 3 5 1017.4 - 0.0
31/08:00am 20.0 15.9 -6.8 16 10.4 N 7 9 4 5 1017.1 - 0.0
31/07:30am 17.1 13.2 -4.4 22 8.5 NW 7 9 4 5 1016.8 1015.9 0.0
31/07:00am 16.2 13.3 -4.5 24 8.1 SSE 2 9 1 5 1016.6 - 0.0
31/06:30am 17.6 13.4 -3.7 23 8.6 SE 9 11 5 6 1016.3 - 0.0
31/06:00am 17.8 13.5 -4.6 21 8.9 ESE 9 11 5 6 1016.0 - 0.0
31/05:30am 16.9 14.4 -3.9 24 8.3 CALM 0 0 0 0 1015.7 - 0.0
31/05:00am 16.1 13.2 -3.8 25 7.9 NNW 2 6 1 3 1015.5 - 0.0
31/04:30am 17.0 14.1 -4.1 23 8.4 ESE 2 6 1 3 1015.3 1014.4 0.0
31/04:00am 18.0 14.1 -6.1 19 9.3 ESE 6 7 3 4 1015.2 - 0.0
31/03:30am 18.6 14.7 -6.7 17 9.7 SSE 6 9 3 5 1015.3 - 0.0
31/03:00am 17.8 13.9 -4.6 21 8.9 ESE 7 7 4 4 1015.5 - 0.0
31/02:30am 17.5 13.7 -3.5 23 8.5 E 7 9 4 5 1015.6 - 0.0
31/02:00am 17.2 13.4 -5.6 20 8.8 ESE 6 9 3 5 1015.5 - 0.0
31/01:30am 20.1 15.8 -4.9 18 10.1 ESE 9 11 5 6 1015.6 1014.7 0.0
31/01:00am 19.9 16.3 -2.2 22 9.4 SE 7 9 4 5 1015.7 - 0.0
31/12:30am 19.8 16.2 -7.9 14 10.5 S 4 7 2 4 1015.9 - 0.0
31/12:00am 20.9 16.3 -4.4 18 10.4 E 11 13 6 7 1015.9 - 0.0
 
Date/Time
CST
Temp
°C
App
Temp
°C
Dew
Point
Rel
Hum
%
Delta-T
°C
Wind Press
QNH
hPa
Press
MSL
hPa
Rain
since 9 am
mm
Dir
 
Spd
km/h
Gust
km/h
Spd
kts
Gust
kts
30/11:30pm 21.6 17.3 -4.6 17 10.8 E 9 11 5 6 1015.9 - 0.0
30/11:00pm 21.8 18.0 -4.1 17 10.8 ENE 7 11 4 6 1015.8 - 0.0
30/10:30pm 22.8 19.5 -8.5 11 12.1 NNE 2 7 1 4 1015.9 1015.0 0.0
30/10:00pm 22.8 19.1 -4.5 16 11.4 SE 6 7 3 4 1015.8 - 0.0
30/09:30pm 22.7 18.9 -5.8 14 11.6 N 6 7 3 4 1015.9 - 0.0
30/09:00pm 23.2 19.9 -1.2 19 10.9 SSE 6 7 3 4 1015.6 - 0.0
30/08:30pm 24.4 21.0 -1.9 17 11.7 SSE 6 7 3 4 1015.3 - 0.0
30/08:00pm 25.6 21.8 -3.5 14 12.7 SE 7 9 4 5 1015.0 - 0.0
30/07:30pm 26.8 22.3 -6.5 10 13.9 SE 9 11 5 6 1014.8 1013.9 0.0
30/07:00pm 27.6 23.2 -5.6 11 14.2 ESE 9 13 5 7 1014.5 - 0.0
30/06:30pm 29.7 25.4 -9.1 7 15.9 E 7 13 4 7 1014.2 - 0.0
30/06:00pm 30.5 25.9 -8.0 8 16.2 E 9 15 5 8 1014.1 - 0.0
30/05:30pm 31.3 25.5 -14.6 4 17.4 E 13 24 7 13 1013.9 - 0.0
30/05:00pm 30.9 27.4 -5.9 9 16.1 NNE 4 15 2 8 1014.0 - 0.0
30/04:30pm 31.5 26.2 -11.5 5 17.2 E 11 22 6 12 1014.0 1013.1 0.0
30/04:00pm 31.2 25.6 -10.4 6 16.9 ENE 13 20 7 11 1014.0 - 0.0
30/03:30pm 31.3 26.2 -9.9 6 16.9 E 11 19 6 10 - - -
30/03:00pm 30.5 25.1 -8.8 7 16.3 E 13 26 7 14 1014.7 - 0.0
30/02:30pm 30.3 24.0 -10.5 6 16.4 ENE 17 32 9 17 1015.1 - 0.0
30/02:00pm 30.5 24.9 -11.3 6 16.6 ENE 13 24 7 13 1015.6 - 0.0
30/01:30pm 31.1 25.1 -11.0 6 16.9 E 15 24 8 13 1016.1 1015.2 0.0

Other Formats:

Comma delimited format used in spreadsheet applications
http://www.bom.gov.au/fwo/IDD60801/IDD60801.94217.axf

JavaScript Object Notation format (JSON) in row-major order
http://www.bom.gov.au/fwo/IDD60801/IDD60801.94217.json